createdAt,value
2019-03-29T00:29:26.487Z,44.80
2019-03-29T00:59:30.368Z,40.20
2019-03-29T01:29:34.176Z,35.13
2019-03-29T01:59:38.074Z,33.48
2019-03-29T02:29:41.984Z,33.08
2019-03-29T02:59:45.874Z,28.20
2019-03-29T03:29:49.768Z,35.08
2019-03-29T03:59:55.344Z,30.40
2019-03-29T04:29:59.315Z,32.80
2019-03-29T05:00:03.216Z,33.13
2019-03-29T05:30:15.962Z,32.45
2019-03-29T06:00:20.195Z,45.50
2019-03-29T06:30:30.771Z,33.00
2019-03-29T07:00:34.623Z,29.85
2019-03-29T07:30:38.697Z,24.05
2019-03-29T08:00:42.756Z,23.00
2019-03-29T08:30:47.008Z,19.23
2019-03-29T09:00:50.808Z,17.60
2019-03-29T09:30:56.517Z,25.32
2019-03-29T10:01:00.076Z,16.95
2019-03-29T10:31:03.813Z,15.50
2019-03-29T11:01:07.780Z,16.77
2019-03-29T11:31:12.054Z,17.25
2019-03-29T12:01:15.847Z,15.60
2019-03-29T12:31:19.653Z,15.40
2019-03-29T13:01:23.615Z,17.48
2019-03-29T13:31:27.398Z,18.30
2019-03-29T14:01:31.111Z,19.57
2019-03-29T14:31:34.972Z,17.90
2019-03-29T15:01:38.778Z,18.62
2019-03-29T15:31:42.821Z,16.62
2019-03-29T16:01:46.647Z,17.07
2019-03-29T16:31:50.431Z,18.75
2019-03-29T17:01:54.304Z,21.23
2019-03-29T18:02:09.180Z,37.03
2019-03-29T18:32:08.216Z,61.83
2019-03-29T19:02:12.061Z,41.98
2019-03-29T19:32:15.880Z,61.68
2019-03-29T20:02:19.881Z,44.33
2019-03-29T20:32:25.527Z,73.62
2019-03-29T21:02:29.306Z,55.67
2019-03-29T21:32:33.114Z,62.38
2019-03-29T22:02:37.064Z,58.25
2019-03-29T22:32:40.851Z,60.80
2019-03-29T23:02:44.748Z,79.15
2019-03-29T23:32:48.542Z,54.45
